createdAt,value
2019-01-29T00:04:08.375Z,3.00
2019-01-29T00:09:09.680Z,3.00
2019-01-29T00:14:10.962Z,2.80
2019-01-29T00:19:12.237Z,3.00
2019-01-29T00:24:13.885Z,2.90
2019-01-29T00:29:15.169Z,2.90
2019-01-29T00:34:16.462Z,2.70
2019-01-29T00:39:17.754Z,2.80
2019-01-29T00:44:19.368Z,2.80
2019-01-29T00:49:22.615Z,2.70
2019-01-29T00:54:23.726Z,2.70
2019-01-29T00:59:25.005Z,2.70
2019-01-29T01:04:26.283Z,2.50
2019-01-29T01:09:27.594Z,2.60
2019-01-29T01:14:29.234Z,2.70
2019-01-29T01:19:30.985Z,2.70
2019-01-29T01:24:32.265Z,2.70
2019-01-29T01:29:33.549Z,2.60
2019-01-29T01:34:34.834Z,2.60
2019-01-29T01:39:36.121Z,2.60
2019-01-29T01:44:37.405Z,2.60
2019-01-29T01:49:38.692Z,2.40
2019-01-29T01:54:39.993Z,2.60
2019-01-29T01:59:41.671Z,2.50
2019-01-29T02:04:42.954Z,2.50
2019-01-29T02:09:44.618Z,2.70
2019-01-29T02:14:45.937Z,2.70
2019-01-29T02:19:47.217Z,2.50
2019-01-29T02:24:48.803Z,2.50
2019-01-29T02:29:50.093Z,2.80
2019-01-29T02:34:51.366Z,2.70
2019-01-29T02:39:52.645Z,2.90
2019-01-29T02:44:54.317Z,3.10
2019-01-29T02:49:55.597Z,3.20
2019-01-29T02:54:56.879Z,3.10
2019-01-29T02:59:58.532Z,3.10
2019-01-29T03:04:59.815Z,2.80
2019-01-29T03:10:01.123Z,2.80
2019-01-29T03:15:05.407Z,2.60
2019-01-29T03:20:09.793Z,2.50
2019-01-29T03:25:11.605Z,2.30
2019-01-29T03:30:20.871Z,2.20
2019-01-29T03:35:22.560Z,2.40
2019-01-29T03:40:25.346Z,2.40
2019-01-29T03:45:26.647Z,2.30
2019-01-29T03:50:29.188Z,2.30
2019-01-29T03:55:30.595Z,2.30
2019-01-29T04:00:31.895Z,2.30
2019-01-29T04:05:33.190Z,2.30
2019-01-29T04:10:34.482Z,2.40
2019-01-29T04:15:36.062Z,2.60
2019-01-29T04:20:37.659Z,2.70
2019-01-29T04:25:38.945Z,2.70
2019-01-29T04:30:40.210Z,2.60
2019-01-29T04:35:41.492Z,2.60
2019-01-29T04:40:42.770Z,2.50
2019-01-29T04:45:44.042Z,2.50
2019-01-29T04:50:45.654Z,2.40
2019-01-29T04:55:46.923Z,2.50
2019-01-29T05:00:48.524Z,2.60
2019-01-29T05:05:49.800Z,2.50
2019-01-29T05:10:51.103Z,2.60
2019-01-29T05:15:52.377Z,2.80
2019-01-29T05:20:54.009Z,2.80
2019-01-29T05:25:55.281Z,2.80
2019-01-29T05:30:56.927Z,2.70
2019-01-29T05:35:58.207Z,2.70
2019-01-29T05:40:59.776Z,2.60
2019-01-29T05:46:01.348Z,2.70
2019-01-29T05:51:02.625Z,2.70
2019-01-29T05:56:04.494Z,2.70
2019-01-29T06:01:05.908Z,2.60
2019-01-29T06:06:07.446Z,2.40
2019-01-29T06:11:09.151Z,2.40
2019-01-29T06:16:10.426Z,2.20
2019-01-29T06:21:11.707Z,2.40
2019-01-29T06:26:13.335Z,2.40
2019-01-29T06:31:14.613Z,2.50
2019-01-29T06:36:15.889Z,2.60
2019-01-29T06:41:17.167Z,2.50
2019-01-29T06:46:18.441Z,2.70
2019-01-29T06:51:20.087Z,2.90
2019-01-29T06:56:21.393Z,3.00
2019-01-29T07:01:22.938Z,3.10
2019-01-29T07:06:24.210Z,3.10
2019-01-29T07:11:25.546Z,3.20
2019-01-29T07:16:37.761Z,3.00
2019-01-29T07:21:39.042Z,2.90
2019-01-29T07:26:40.318Z,3.00
2019-01-29T07:31:41.593Z,3.10
2019-01-29T07:36:43.205Z,3.00
2019-01-29T07:41:44.881Z,2.90
2019-01-29T07:46:46.167Z,2.70
2019-01-29T07:51:47.439Z,2.30
2019-01-29T07:56:49.067Z,2.30
2019-01-29T08:01:50.671Z,2.20
2019-01-29T08:06:51.969Z,1.90
2019-01-29T08:11:53.585Z,1.90
2019-01-29T08:16:54.868Z,1.80
2019-01-29T08:21:56.435Z,2.00
2019-01-29T08:26:57.717Z,2.20
2019-01-29T08:31:58.989Z,2.70
2019-01-29T08:37:00.267Z,4.40
2019-01-29T08:42:01.944Z,5.90
2019-01-29T08:47:03.322Z,6.90
2019-01-29T08:52:04.602Z,7.60
2019-01-29T08:57:05.878Z,7.60
2019-01-29T09:02:08.216Z,8.60
2019-01-29T09:07:09.662Z,9.00
2019-01-29T09:12:10.945Z,9.80
2019-01-29T09:17:12.232Z,8.30
2019-01-29T09:22:13.511Z,7.10
2019-01-29T09:27:14.790Z,6.00
2019-01-29T09:32:16.037Z,5.50
2019-01-29T09:37:17.612Z,5.30
2019-01-29T09:42:18.890Z,7.40
2019-01-29T09:47:20.177Z,10.40
2019-01-29T09:52:21.449Z,12.00
2019-01-29T09:57:22.722Z,13.00
2019-01-29T10:02:24.391Z,14.10
2019-01-29T10:07:25.693Z,14.10
2019-01-29T10:12:26.969Z,14.40
2019-01-29T10:17:28.655Z,14.80
2019-01-29T10:22:30.285Z,15.70
2019-01-29T10:27:31.675Z,15.60
2019-01-29T10:32:33.069Z,16.50
2019-01-29T10:37:34.704Z,17.20
2019-01-29T10:42:35.978Z,18.20
2019-01-29T10:47:37.707Z,17.90
2019-01-29T10:52:38.933Z,17.40
2019-01-29T10:57:40.211Z,18.40
2019-01-29T11:02:41.483Z,19.70
2019-01-29T11:07:42.789Z,19.00
2019-01-29T11:12:44.082Z,19.40
2019-01-29T11:17:45.417Z,19.10
2019-01-29T11:22:46.939Z,19.70
2019-01-29T11:27:48.217Z,18.30
2019-01-29T11:32:49.490Z,16.20
2019-01-29T11:37:50.769Z,15.20
2019-01-29T11:42:52.046Z,13.90
2019-01-29T11:47:53.330Z,11.30
2019-01-29T11:52:54.962Z,10.40
2019-01-29T11:57:56.609Z,12.90
2019-01-29T12:02:58.317Z,15.10
2019-01-29T12:07:59.622Z,15.10
2019-01-29T12:13:02.544Z,13.60
2019-01-29T12:18:04.421Z,12.50
2019-01-29T12:23:05.702Z,13.20
2019-01-29T12:28:07.321Z,11.60
2019-01-29T12:33:08.609Z,13.70
2019-01-29T12:38:09.883Z,13.70
2019-01-29T12:43:11.163Z,14.40
2019-01-29T12:48:12.449Z,15.10
2019-01-29T12:53:15.641Z,16.90
2019-01-29T12:58:17.287Z,18.30
2019-01-29T13:03:18.969Z,19.60
2019-01-29T13:08:20.381Z,17.20
2019-01-29T13:13:21.662Z,15.60
2019-01-29T13:18:22.937Z,12.90
2019-01-29T13:23:24.210Z,12.10
2019-01-29T13:28:25.517Z,12.30
2019-01-29T13:33:27.162Z,11.00
2019-01-29T13:38:28.447Z,10.40
2019-01-29T13:43:29.717Z,11.30
2019-01-29T13:48:30.989Z,10.20
2019-01-29T13:53:32.645Z,8.60
2019-01-29T13:58:34.224Z,7.80
2019-01-29T14:03:35.930Z,8.20
2019-01-29T14:08:37.577Z,7.80
2019-01-29T14:13:38.853Z,7.90
2019-01-29T14:18:40.916Z,8.00
2019-01-29T14:23:42.746Z,8.40
2019-01-29T14:28:44.038Z,8.40
2019-01-29T14:33:47.176Z,8.70
2019-01-29T14:39:18.193Z,9.40
2019-01-29T14:44:19.474Z,10.50
2019-01-29T14:49:20.753Z,10.10
2019-01-29T14:54:22.048Z,10.40
2019-01-29T14:59:23.329Z,10.30
2019-01-29T15:04:24.612Z,9.50
2019-01-29T15:09:26.370Z,8.40
2019-01-29T15:14:27.943Z,8.30
2019-01-29T15:19:29.222Z,8.10
2019-01-29T15:24:30.558Z,7.30
2019-01-29T15:29:31.777Z,7.00
2019-01-29T15:34:33.058Z,6.80
2019-01-29T15:39:34.337Z,6.70
2019-01-29T15:44:35.993Z,6.40
2019-01-29T15:49:37.284Z,6.10
2019-01-29T15:59:49.267Z,5.70
2019-01-29T16:04:50.576Z,5.50
2019-01-29T16:09:53.543Z,5.20
2019-01-29T16:14:54.953Z,4.50
2019-01-29T16:19:58.127Z,4.50
2019-01-29T16:25:00.254Z,3.90
2019-01-29T16:30:02.286Z,3.90
2019-01-29T16:35:06.178Z,3.80
2019-01-29T16:40:14.716Z,3.60
2019-01-29T16:45:27.724Z,3.40
2019-01-29T16:50:29.131Z,3.10
2019-01-29T16:55:31.753Z,3.10
2019-01-29T17:00:35.292Z,2.80
2019-01-29T17:05:36.775Z,2.60
2019-01-29T17:10:38.084Z,2.20
2019-01-29T17:15:39.365Z,1.90
2019-01-29T17:20:42.351Z,1.90
2019-01-29T17:25:43.625Z,2.20
2019-01-29T17:30:44.951Z,2.20
2019-01-29T17:35:46.338Z,2.30
2019-01-29T17:40:47.644Z,2.00
2019-01-29T17:45:50.692Z,1.90
2019-01-29T17:50:52.021Z,1.80
2019-01-29T17:55:53.875Z,1.80
2019-01-29T18:00:57.058Z,1.60
2019-01-29T18:05:58.694Z,1.70
2019-01-29T18:11:00.229Z,2.00
2019-01-29T18:16:01.849Z,1.90
2019-01-29T18:21:03.145Z,1.70
2019-01-29T18:26:04.862Z,1.60
2019-01-29T18:31:06.137Z,1.40
2019-01-29T18:36:07.785Z,1.40
2019-01-29T18:41:09.321Z,1.20
2019-01-29T18:46:10.706Z,1.10
2019-01-29T18:51:12.017Z,1.20
2019-01-29T18:56:13.274Z,1.20
2019-01-29T19:01:14.563Z,1.00
2019-01-29T19:06:15.961Z,0.90
2019-01-29T19:11:17.649Z,1.00
2019-01-29T19:16:20.307Z,0.90
2019-01-29T19:21:21.554Z,0.90
2019-01-29T19:26:22.855Z,0.90
2019-01-29T19:31:24.150Z,0.70
2019-01-29T19:36:25.438Z,0.80
2019-01-29T19:41:27.095Z,0.60
2019-01-29T19:46:28.374Z,0.60
2019-01-29T19:51:29.672Z,0.80
2019-01-29T19:56:31.277Z,0.80
2019-01-29T20:01:32.563Z,0.80
2019-01-29T20:06:33.839Z,0.60
2019-01-29T20:11:35.154Z,0.40
2019-01-29T20:16:36.435Z,0.50
2019-01-29T20:21:38.117Z,0.30
2019-01-29T20:26:39.349Z,0.60
2019-01-29T20:31:40.676Z,0.70
2019-01-29T20:36:42.370Z,0.80
2019-01-29T20:41:44.624Z,0.60
2019-01-29T20:46:45.890Z,0.60
2019-01-29T20:51:47.491Z,0.70
2019-01-29T20:56:49.091Z,0.70
2019-01-29T21:01:50.738Z,0.60
2019-01-29T21:06:52.011Z,0.60
2019-01-29T21:11:53.318Z,0.50
2019-01-29T21:16:54.594Z,0.60
2019-01-29T21:21:56.102Z,0.60
2019-01-29T21:26:57.335Z,0.60
2019-01-29T21:31:58.611Z,0.50
2019-01-29T21:36:59.892Z,0.50
2019-01-29T21:42:01.165Z,0.10
2019-01-29T21:47:02.443Z,-0.10
2019-01-29T21:52:03.722Z,0.10
2019-01-29T21:57:04.999Z,0.00
2019-01-29T22:02:06.609Z,0.20
2019-01-29T22:07:07.953Z,0.40
2019-01-29T22:12:09.251Z,0.00
2019-01-29T22:17:10.526Z,-0.10
2019-01-29T22:22:11.810Z,0.30
2019-01-29T22:27:13.462Z,0.30
2019-01-29T22:32:14.745Z,0.00
2019-01-29T22:37:16.431Z,-0.10
2019-01-29T22:42:17.703Z,0.00
2019-01-29T22:47:19.355Z,0.20
2019-01-29T22:52:20.630Z,0.30
2019-01-29T22:57:21.906Z,0.40
2019-01-29T23:02:23.197Z,0.30
2019-01-29T23:07:24.473Z,0.10
2019-01-29T23:12:26.083Z,0.40
2019-01-29T23:17:27.357Z,0.40
2019-01-29T23:22:28.637Z,0.60
2019-01-29T23:27:29.910Z,0.80
2019-01-29T23:32:31.292Z,0.90
2019-01-29T23:37:32.603Z,1.20
2019-01-29T23:42:34.233Z,1.10
2019-01-29T23:47:35.501Z,1.20
2019-01-29T23:52:36.785Z,0.90
2019-01-29T23:57:38.067Z,1.10
